sensor_id;sensor_type;location;lat;lon;timestamp;pressure;altitude;pressure_sealevel;temperature
25514;BMP180;48128;54.242;10.280;2022-12-10T15:22:21;100725.00;;;-1.50
25514;BMP180;48128;54.242;10.280;2022-12-10T15:24:48;100720.00;;;-1.60
25514;BMP180;48128;54.242;10.280;2022-12-10T15:27:16;100720.00;;;-1.60
25514;BMP180;48128;54.242;10.280;2022-12-10T15:29:43;100713.00;;;-1.60
25514;BMP180;48128;54.242;10.280;2022-12-10T15:35:10;100717.00;;;-1.70
25514;BMP180;48128;54.242;10.280;2022-12-10T15:37:47;100716.00;;;-1.70
25514;BMP180;48128;54.242;10.280;2022-12-10T15:42:56;100722.00;;;-1.70
25514;BMP180;48128;54.242;10.280;2022-12-10T15:45:37;100722.00;;;-1.70
25514;BMP180;48128;54.242;10.280;2022-12-10T15:48:07;100734.00;;;-1.70
25514;BMP180;48128;54.242;10.280;2022-12-10T15:50:40;100733.00;;;-1.70
25514;BMP180;48128;54.242;10.280;2022-12-10T15:53:11;100734.00;;;-1.70
25514;BMP180;48128;54.242;10.280;2022-12-10T15:55:39;100722.00;;;-1.80
25514;BMP180;48128;54.242;10.280;2022-12-10T15:58:13;100733.00;;;-1.80
25514;BMP180;48128;54.242;10.280;2022-12-10T16:00:41;100732.00;;;-1.70
25514;BMP180;48128;54.242;10.280;2022-12-10T16:03:13;100740.00;;;-1.70
25514;BMP180;48128;54.242;10.280;2022-12-10T16:05:40;100736.00;;;-1.70
25514;BMP180;48128;54.242;10.280;2022-12-10T16:08:24;100731.00;;;-1.70
25514;BMP180;48128;54.242;10.280;2022-12-10T16:10:53;100733.00;;;-1.70
25514;BMP180;48128;54.242;10.280;2022-12-10T16:13:26;100728.00;;;-1.70
25514;BMP180;48128;54.242;10.280;2022-12-10T16:16:03;100725.00;;;-1.70
25514;BMP180;48128;54.242;10.280;2022-12-10T16:18:31;100736.00;;;-1.70
25514;BMP180;48128;54.242;10.280;2022-12-10T16:21:00;100735.00;;;-1.60
25514;BMP180;48128;54.242;10.280;2022-12-10T16:23:27;100727.00;;;-1.60
25514;BMP180;48128;54.242;10.280;2022-12-10T16:25:54;100739.00;;;-1.60
25514;BMP180;48128;54.242;10.280;2022-12-10T16:28:24;100744.00;;;-1.60
25514;BMP180;48128;54.242;10.280;2022-12-10T16:31:00;100743.00;;;-1.70
25514;BMP180;48128;54.242;10.280;2022-12-10T16:33:27;100730.00;;;-1.70
25514;BMP180;48128;54.242;10.280;2022-12-10T16:35:54;100734.00;;;-1.70
25514;BMP180;48128;54.242;10.280;2022-12-10T16:38:22;100756.00;;;-1.70
25514;BMP180;48128;54.242;10.280;2022-12-10T16:40:53;100735.00;;;-1.80
25514;BMP180;48128;54.242;10.280;2022-12-10T16:43:22;100748.00;;;-1.80
25514;BMP180;48128;54.242;10.280;2022-12-10T16:45:52;100737.00;;;-1.70
25514;BMP180;48128;54.242;10.280;2022-12-10T16:48:20;100735.00;;;-1.80
25514;BMP180;48128;54.242;10.280;2022-12-10T16:50:50;100728.00;;;-1.80
25514;BMP180;48128;54.242;10.280;2022-12-10T16:53:24;100725.00;;;-1.70
25514;BMP180;48128;54.242;10.280;2022-12-10T16:55:54;100729.00;;;-1.70
25514;BMP180;48128;54.242;10.280;2022-12-10T16:58:25;100728.00;;;-1.80
25514;BMP180;48128;54.242;10.280;2022-12-10T17:00:53;100724.00;;;-1.70
25514;BMP180;48128;54.242;10.280;2022-12-10T17:03:23;100721.00;;;-1.70
25514;BMP180;48128;54.242;10.280;2022-12-10T17:05:53;100726.00;;;-1.70
25514;BMP180;48128;54.242;10.280;2022-12-10T17:08:27;100738.00;;;-1.70
25514;BMP180;48128;54.242;10.280;2022-12-10T17:10:56;100722.00;;;-1.70
25514;BMP180;48128;54.242;10.280;2022-12-10T17:13:43;100740.00;;;-1.70
25514;BMP180;48128;54.242;10.280;2022-12-10T17:16:21;100730.00;;;-1.70
25514;BMP180;48128;54.242;10.280;2022-12-10T17:19:02;100731.00;;;-1.70
25514;BMP180;48128;54.242;10.280;2022-12-10T17:21:29;100745.00;;;-1.70
25514;BMP180;48128;54.242;10.280;2022-12-10T17:24:02;100726.00;;;-1.70
25514;BMP180;48128;54.242;10.280;2022-12-10T17:26:31;100737.00;;;-1.70
25514;BMP180;48128;54.242;10.280;2022-12-10T17:29:10;100738.00;;;-1.70
25514;BMP180;48128;54.242;10.280;2022-12-10T17:31:39;100737.00;;;-1.70
25514;BMP180;48128;54.242;10.280;2022-12-10T17:34:06;100741.00;;;-1.70
25514;BMP180;48128;54.242;10.280;2022-12-10T17:36:33;100742.00;;;-1.70
25514;BMP180;48128;54.242;10.280;2022-12-10T17:39:00;100738.00;;;-1.70
25514;BMP180;48128;54.242;10.280;2022-12-10T17:41:27;100730.00;;;-1.70
25514;BMP180;48128;54.242;10.280;2022-12-10T17:44:03;100742.00;;;-1.70
25514;BMP180;48128;54.242;10.280;2022-12-10T17:46:31;100753.00;;;-1.70
25514;BMP180;48128;54.242;10.280;2022-12-10T17:48:58;100753.00;;;-1.80
25514;BMP180;48128;54.242;10.280;2022-12-10T17:54:00;100767.00;;;-1.70
25514;BMP180;48128;54.242;10.280;2022-12-10T17:56:27;100756.00;;;-1.70
25514;BMP180;48128;54.242;10.280;2022-12-10T17:58:57;100750.00;;;-1.70
25514;BMP180;48128;54.242;10.280;2022-12-10T18:01:24;100742.00;;;-1.70
25514;BMP180;48128;54.242;10.280;2022-12-10T18:03:57;100758.00;;;-1.70
25514;BMP180;48128;54.242;10.280;2022-12-10T18:06:28;100755.00;;;-1.80
25514;BMP180;48128;54.242;10.280;2022-12-10T18:08:57;100771.00;;;-1.80
25514;BMP180;48128;54.242;10.280;2022-12-10T18:11:33;100758.00;;;-1.80
25514;BMP180;48128;54.242;10.280;2022-12-10T18:14:01;100755.00;;;-1.80
25514;BMP180;48128;54.242;10.280;2022-12-10T18:16:32;100773.00;;;-1.80
25514;BMP180;48128;54.242;10.280;2022-12-10T18:19:03;100767.00;;;-1.80
25514;BMP180;48128;54.242;10.280;2022-12-10T18:21:30;100771.00;;;-1.80
25514;BMP180;48128;54.242;10.280;2022-12-10T18:23:57;100774.00;;;-1.80
25514;BMP180;48128;54.242;10.280;2022-12-10T18:26:24;100760.00;;;-1.90
25514;BMP180;48128;54.242;10.280;2022-12-10T18:28:56;100769.00;;;-1.90
25514;BMP180;48128;54.242;10.280;2022-12-10T18:31:25;100773.00;;;-1.90
25514;BMP180;48128;54.242;10.280;2022-12-10T18:33:57;100767.00;;;-1.90
25514;BMP180;48128;54.242;10.280;2022-12-10T18:36:30;100766.00;;;-1.90
25514;BMP180;48128;54.242;10.280;2022-12-10T18:39:00;100763.00;;;-2.00
25514;BMP180;48128;54.242;10.280;2022-12-10T18:41:27;100769.00;;;-2.00
25514;BMP180;48128;54.242;10.280;2022-12-10T18:43:53;100767.00;;;-2.00
25514;BMP180;48128;54.242;10.280;2022-12-10T18:46:25;100767.00;;;-2.10
25514;BMP180;48128;54.242;10.280;2022-12-10T18:48:52;100755.00;;;-2.20
25514;BMP180;48128;54.242;10.280;2022-12-10T18:51:23;100773.00;;;-2.20
25514;BMP180;48128;54.242;10.280;2022-12-10T18:53:50;100772.00;;;-2.30
25514;BMP180;48128;54.242;10.280;2022-12-10T18:56:22;100781.00;;;-2.40
25514;BMP180;48128;54.242;10.280;2022-12-10T18:58:52;100770.00;;;-2.50
25514;BMP180;48128;54.242;10.280;2022-12-10T19:01:21;100767.00;;;-2.60
25514;BMP180;48128;54.242;10.280;2022-12-10T19:03:51;100758.00;;;-2.70
25514;BMP180;48128;54.242;10.280;2022-12-10T19:06:21;100756.00;;;-2.70
25514;BMP180;48128;54.242;10.280;2022-12-10T19:08:49;100769.00;;;-2.70
25514;BMP180;48128;54.242;10.280;2022-12-10T19:11:36;100758.00;;;-2.80
25514;BMP180;48128;54.242;10.280;2022-12-10T19:14:03;100768.00;;;-2.80
25514;BMP180;48128;54.242;10.280;2022-12-10T19:16:30;100781.00;;;-2.90
25514;BMP180;48128;54.242;10.280;2022-12-10T19:18:57;100770.00;;;-3.10
25514;BMP180;48128;54.242;10.280;2022-12-10T19:21:28;100766.00;;;-3.20
25514;BMP180;48128;54.242;10.280;2022-12-10T19:23:55;100763.00;;;-3.30
25514;BMP180;48128;54.242;10.280;2022-12-10T19:26:35;100763.00;;;-3.40
25514;BMP180;48128;54.242;10.280;2022-12-10T19:29:17;100763.00;;;-3.40
25514;BMP180;48128;54.242;10.280;2022-12-10T19:31:47;100773.00;;;-3.40
25514;BMP180;48128;54.242;10.280;2022-12-10T19:34:28;100770.00;;;-3.50
25514;BMP180;48128;54.242;10.280;2022-12-10T19:36:58;100762.00;;;-3.60
25514;BMP180;48128;54.242;10.280;2022-12-10T19:39:25;100762.00;;;-3.60
25514;BMP180;48128;54.242;10.280;2022-12-10T19:42:00;100763.00;;;-3.70
25514;BMP180;48128;54.242;10.280;2022-12-10T19:44:26;100760.00;;;-3.80
25514;BMP180;48128;54.242;10.280;2022-12-10T19:46:53;100751.00;;;-3.80
25514;BMP180;48128;54.242;10.280;2022-12-10T19:49:20;100756.00;;;-3.90
25514;BMP180;48128;54.242;10.280;2022-12-10T19:51:47;100742.00;;;-3.90
25514;BMP180;48128;54.242;10.280;2022-12-10T19:54:14;100749.00;;;-3.90
25514;BMP180;48128;54.242;10.280;2022-12-10T19:56:41;100752.00;;;-4.00
25514;BMP180;48128;54.242;10.280;2022-12-10T19:59:17;100742.00;;;-4.00
25514;BMP180;48128;54.242;10.280;2022-12-10T20:01:44;100740.00;;;-4.00
25514;BMP180;48128;54.242;10.280;2022-12-10T20:04:13;100749.00;;;-4.10
25514;BMP180;48128;54.242;10.280;2022-12-10T20:06:49;100739.00;;;-4.10
25514;BMP180;48128;54.242;10.280;2022-12-10T20:09:18;100745.00;;;-4.20
25514;BMP180;48128;54.242;10.280;2022-12-10T20:11:49;100742.00;;;-4.30
25514;BMP180;48128;54.242;10.280;2022-12-10T20:14:19;100740.00;;;-4.30
25514;BMP180;48128;54.242;10.280;2022-12-10T20:16:47;100733.00;;;-4.40
25514;BMP180;48128;54.242;10.280;2022-12-10T20:19:22;100729.00;;;-4.40
25514;BMP180;48128;54.242;10.280;2022-12-10T20:21:50;100736.00;;;-4.50
25514;BMP180;48128;54.242;10.280;2022-12-10T20:24:21;100734.00;;;-4.50
25514;BMP180;48128;54.242;10.280;2022-12-10T20:26:48;100737.00;;;-4.50
25514;BMP180;48128;54.242;10.280;2022-12-10T20:29:21;100729.00;;;-4.60
25514;BMP180;48128;54.242;10.280;2022-12-10T20:31:51;100753.00;;;-4.60
25514;BMP180;48128;54.242;10.280;2022-12-10T20:34:20;100743.00;;;-4.70
25514;BMP180;48128;54.242;10.280;2022-12-10T20:36:48;100750.00;;;-4.70
25514;BMP180;48128;54.242;10.280;2022-12-10T20:39:23;100748.00;;;-4.70
25514;BMP180;48128;54.242;10.280;2022-12-10T20:41:51;100756.00;;;-4.80
25514;BMP180;48128;54.242;10.280;2022-12-10T20:44:19;100769.00;;;-4.80
25514;BMP180;48128;54.242;10.280;2022-12-10T20:46:46;100752.00;;;-4.90
25514;BMP180;48128;54.242;10.280;2022-12-10T20:49:14;100774.00;;;-4.90
25514;BMP180;48128;54.242;10.280;2022-12-10T20:51:41;100772.00;;;-4.80
25514;BMP180;48128;54.242;10.280;2022-12-10T20:54:08;100755.00;;;-4.90
25514;BMP180;48128;54.242;10.280;2022-12-10T20:56:35;100770.00;;;-4.90
25514;BMP180;48128;54.242;10.280;2022-12-10T20:59:04;100773.00;;;-4.90
25514;BMP180;48128;54.242;10.280;2022-12-10T21:01:31;100765.00;;;-4.90
25514;BMP180;48128;54.242;10.280;2022-12-10T21:03:58;100767.00;;;-4.90
25514;BMP180;48128;54.242;10.280;2022-12-10T21:06:29;100765.00;;;-4.90
25514;BMP180;48128;54.242;10.280;2022-12-10T21:08:56;100765.00;;;-5.00
25514;BMP180;48128;54.242;10.280;2022-12-10T21:11:23;100764.00;;;-5.00
25514;BMP180;48128;54.242;10.280;2022-12-10T21:13:50;100765.00;;;-5.10
25514;BMP180;48128;54.242;10.280;2022-12-10T21:16:19;100769.00;;;-5.10
25514;BMP180;48128;54.242;10.280;2022-12-10T21:18:47;100765.00;;;-5.10
25514;BMP180;48128;54.242;10.280;2022-12-10T21:21:17;100782.00;;;-5.20
25514;BMP180;48128;54.242;10.280;2022-12-10T21:23:44;100772.00;;;-5.20
25514;BMP180;48128;54.242;10.280;2022-12-10T21:26:11;100764.00;;;-5.20
25514;BMP180;48128;54.242;10.280;2022-12-10T21:28:39;100768.00;;;-5.30
25514;BMP180;48128;54.242;10.280;2022-12-10T21:31:05;100758.00;;;-5.30
25514;BMP180;48128;54.242;10.280;2022-12-10T21:33:32;100759.00;;;-5.30
25514;BMP180;48128;54.242;10.280;2022-12-10T21:36:05;100768.00;;;-5.40
25514;BMP180;48128;54.242;10.280;2022-12-10T21:38:32;100763.00;;;-5.40
25514;BMP180;48128;54.242;10.280;2022-12-10T21:40:59;100754.00;;;-5.40
25514;BMP180;48128;54.242;10.280;2022-12-10T21:43:46;100763.00;;;-5.40
25514;BMP180;48128;54.242;10.280;2022-12-10T21:46:12;100754.00;;;-5.50
25514;BMP180;48128;54.242;10.280;2022-12-10T21:48:39;100764.00;;;-5.50
25514;BMP180;48128;54.242;10.280;2022-12-10T21:51:06;100759.00;;;-5.50
25514;BMP180;48128;54.242;10.280;2022-12-10T21:53:33;100768.00;;;-5.50
25514;BMP180;48128;54.242;10.280;2022-12-10T21:56:07;100769.00;;;-5.50
25514;BMP180;48128;54.242;10.280;2022-12-10T21:58:35;100775.00;;;-5.50
25514;BMP180;48128;54.242;10.280;2022-12-10T22:01:03;100770.00;;;-5.50
25514;BMP180;48128;54.242;10.280;2022-12-10T22:03:30;100775.00;;;-5.60
25514;BMP180;48128;54.242;10.280;2022-12-10T22:05:57;100768.00;;;-5.60
25514;BMP180;48128;54.242;10.280;2022-12-10T22:08:24;100768.00;;;-5.60
25514;BMP180;48128;54.242;10.280;2022-12-10T22:10:50;100775.00;;;-5.70
25514;BMP180;48128;54.242;10.280;2022-12-10T22:13:18;100777.00;;;-5.70
25514;BMP180;48128;54.242;10.280;2022-12-10T22:15:45;100771.00;;;-5.70
25514;BMP180;48128;54.242;10.280;2022-12-10T22:18:12;100781.00;;;-5.70
25514;BMP180;48128;54.242;10.280;2022-12-10T22:20:40;100768.00;;;-5.80
25514;BMP180;48128;54.242;10.280;2022-12-10T22:23:08;100765.00;;;-5.80
25514;BMP180;48128;54.242;10.280;2022-12-10T22:25:39;100785.00;;;-5.90
25514;BMP180;48128;54.242;10.280;2022-12-10T22:28:05;100774.00;;;-5.90
25514;BMP180;48128;54.242;10.280;2022-12-10T22:30:32;100772.00;;;-5.90
25514;BMP180;48128;54.242;10.280;2022-12-10T22:32:59;100763.00;;;-5.90
25514;BMP180;48128;54.242;10.280;2022-12-10T22:35:26;100772.00;;;-6.00
25514;BMP180;48128;54.242;10.280;2022-12-10T22:37:53;100779.00;;;-6.00
25514;BMP180;48128;54.242;10.280;2022-12-10T22:40:19;100779.00;;;-6.00
25514;BMP180;48128;54.242;10.280;2022-12-10T22:42:46;100770.00;;;-6.00
25514;BMP180;48128;54.242;10.280;2022-12-10T22:45:16;100783.00;;;-6.00
25514;BMP180;48128;54.242;10.280;2022-12-10T22:47:42;100788.00;;;-6.00
25514;BMP180;48128;54.242;10.280;2022-12-10T22:50:09;100772.00;;;-6.00
25514;BMP180;48128;54.242;10.280;2022-12-10T22:52:36;100782.00;;;-6.00
25514;BMP180;48128;54.242;10.280;2022-12-10T22:55:04;100772.00;;;-6.00
25514;BMP180;48128;54.242;10.280;2022-12-10T22:57:31;100765.00;;;-5.90
25514;BMP180;48128;54.242;10.280;2022-12-10T22:59:59;100774.00;;;-5.90
25514;BMP180;48128;54.242;10.280;2022-12-10T23:02:25;100761.00;;;-5.90
25514;BMP180;48128;54.242;10.280;2022-12-10T23:04:52;100765.00;;;-5.80
25514;BMP180;48128;54.242;10.280;2022-12-10T23:07:19;100768.00;;;-5.80
25514;BMP180;48128;54.242;10.280;2022-12-10T23:09:46;100763.00;;;-5.70
25514;BMP180;48128;54.242;10.280;2022-12-10T23:12:13;100763.00;;;-5.60
25514;BMP180;48128;54.242;10.280;2022-12-10T23:19:15;100770.00;;;-5.60
25514;BMP180;48128;54.242;10.280;2022-12-10T23:21:42;100764.00;;;-5.50
25514;BMP180;48128;54.242;10.280;2022-12-10T23:24:11;100768.00;;;-5.40
25514;BMP180;48128;54.242;10.280;2022-12-10T23:26:59;100769.00;;;-5.40
25514;BMP180;48128;54.242;10.280;2022-12-10T23:29:57;100776.00;;;-5.40
25514;BMP180;48128;54.242;10.280;2022-12-10T23:32:47;100764.00;;;-5.40
25514;BMP180;48128;54.242;10.280;2022-12-10T23:35:16;100767.00;;;-5.30
25514;BMP180;48128;54.242;10.280;2022-12-10T23:37:43;100777.00;;;-5.30
